sensor_id;sensor_type;location;lat;lon;timestamp;pressure;altitude;pressure_sealevel;temperature;humidity
18755;BME280;35061;47.664;9.166;2023-12-14T00:00:14;100502.80;;;6.57;100.00
18755;BME280;35061;47.664;9.166;2023-12-14T00:02:42;100508.79;;;6.59;100.00
18755;BME280;35061;47.664;9.166;2023-12-14T00:05:10;100514.02;;;6.61;100.00
18755;BME280;35061;47.664;9.166;2023-12-14T00:07:38;100513.23;;;6.60;100.00
18755;BME280;35061;47.664;9.166;2023-12-14T00:10:06;100508.33;;;6.61;100.00
18755;BME280;35061;47.664;9.166;2023-12-14T00:12:34;100512.77;;;6.62;100.00
18755;BME280;35061;47.664;9.166;2023-12-14T00:15:03;100516.57;;;6.59;100.00
18755;BME280;35061;47.664;9.166;2023-12-14T00:17:31;100519.41;;;6.59;100.00
18755;BME280;35061;47.664;9.166;2023-12-14T00:19:59;100521.45;;;6.58;100.00
18755;BME280;35061;47.664;9.166;2023-12-14T00:22:27;100525.10;;;6.59;100.00
18755;BME280;35061;47.664;9.166;2023-12-14T00:24:55;100524.91;;;6.53;100.00
18755;BME280;35061;47.664;9.166;2023-12-14T00:27:23;100530.76;;;6.49;100.00
18755;BME280;35061;47.664;9.166;2023-12-14T00:29:51;100535.80;;;6.45;100.00
18755;BME280;35061;47.664;9.166;2023-12-14T00:32:19;100536.91;;;6.48;100.00
18755;BME280;35061;47.664;9.166;2023-12-14T00:34:47;100543.58;;;6.45;100.00
18755;BME280;35061;47.664;9.166;2023-12-14T00:37:15;100544.33;;;6.45;100.00
18755;BME280;35061;47.664;9.166;2023-12-14T00:39:42;100548.13;;;6.42;100.00
18755;BME280;35061;47.664;9.166;2023-12-14T00:42:10;100558.10;;;6.47;100.00
18755;BME280;35061;47.664;9.166;2023-12-14T00:44:38;100561.40;;;6.45;100.00
18755;BME280;35061;47.664;9.166;2023-12-14T00:47:06;100561.89;;;6.44;100.00
18755;BME280;35061;47.664;9.166;2023-12-14T00:49:34;100574.19;;;6.40;100.00
18755;BME280;35061;47.664;9.166;2023-12-14T00:52:03;100567.42;;;6.38;100.00
18755;BME280;35061;47.664;9.166;2023-12-14T00:54:32;100570.27;;;6.38;100.00
18755;BME280;35061;47.664;9.166;2023-12-14T00:56:59;100565.66;;;6.40;100.00
18755;BME280;35061;47.664;9.166;2023-12-14T00:59:29;100568.50;;;6.40;100.00
18755;BME280;35061;47.664;9.166;2023-12-14T01:01:58;100579.13;;;6.40;100.00
18755;BME280;35061;47.664;9.166;2023-12-14T01:04:26;100581.48;;;6.41;100.00
18755;BME280;35061;47.664;9.166;2023-12-14T01:06:54;100585.89;;;6.42;100.00
18755;BME280;35061;47.664;9.166;2023-12-14T01:09:22;100593.64;;;6.42;100.00
18755;BME280;35061;47.664;9.166;2023-12-14T01:11:50;100591.59;;;6.42;100.00
18755;BME280;35061;47.664;9.166;2023-12-14T01:14:18;100598.55;;;6.41;100.00
18755;BME280;35061;47.664;9.166;2023-12-14T01:16:46;100607.09;;;6.41;100.00
18755;BME280;35061;47.664;9.166;2023-12-14T01:19:14;100610.71;;;6.42;100.00
18755;BME280;35061;47.664;9.166;2023-12-14T01:21:42;100617.35;;;6.39;100.00
18755;BME280;35061;47.664;9.166;2023-12-14T01:24:10;100619.87;;;6.37;100.00
18755;BME280;35061;47.664;9.166;2023-12-14T01:26:38;100622.52;;;6.31;100.00
18755;BME280;35061;47.664;9.166;2023-12-14T01:29:06;100627.13;;;6.28;100.00
18755;BME280;35061;47.664;9.166;2023-12-14T01:31:34;100623.59;;;6.24;100.00
18755;BME280;35061;47.664;9.166;2023-12-14T01:34:02;100640.34;;;6.22;100.00
18755;BME280;35061;47.664;9.166;2023-12-14T01:36:30;100642.89;;;6.20;100.00
18755;BME280;35061;47.664;9.166;2023-12-14T01:38:58;100649.66;;;6.13;100.00
18755;BME280;35061;47.664;9.166;2023-12-14T01:41:26;100640.60;;;6.06;100.00
18755;BME280;35061;47.664;9.166;2023-12-14T01:43:54;100650.87;;;6.03;100.00
18755;BME280;35061;47.664;9.166;2023-12-14T01:46:22;100658.23;;;6.00;100.00
18755;BME280;35061;47.664;9.166;2023-12-14T01:48:50;100663.27;;;5.96;100.00
18755;BME280;35061;47.664;9.166;2023-12-14T01:51:19;100654.56;;;5.91;100.00
18755;BME280;35061;47.664;9.166;2023-12-14T01:53:48;100666.37;;;5.89;100.00
18755;BME280;35061;47.664;9.166;2023-12-14T01:56:16;100663.66;;;5.85;100.00
18755;BME280;35061;47.664;9.166;2023-12-14T01:58:44;100667.32;;;5.86;100.00
18755;BME280;35061;47.664;9.166;2023-12-14T02:01:52;100676.60;;;5.86;100.00
18755;BME280;35061;47.664;9.166;2023-12-14T02:04:10;100677.42;;;5.87;100.00
18755;BME280;35061;47.664;9.166;2023-12-14T02:06:39;100678.20;;;5.87;100.00
18755;BME280;35061;47.664;9.166;2023-12-14T02:09:07;100682.42;;;5.83;100.00
18755;BME280;35061;47.664;9.166;2023-12-14T02:11:35;100680.59;;;5.89;100.00
18755;BME280;35061;47.664;9.166;2023-12-14T02:14:05;100689.45;;;5.91;100.00
18755;BME280;35061;47.664;9.166;2023-12-14T02:16:33;100688.05;;;5.96;100.00
18755;BME280;35061;47.664;9.166;2023-12-14T02:19:01;100696.81;;;6.02;100.00
18755;BME280;35061;47.664;9.166;2023-12-14T02:21:29;100697.47;;;6.06;100.00
18755;BME280;35061;47.664;9.166;2023-12-14T02:23:57;100705.71;;;6.13;100.00
18755;BME280;35061;47.664;9.166;2023-12-14T02:26:25;100709.24;;;6.17;100.00
18755;BME280;35061;47.664;9.166;2023-12-14T02:28:53;100709.08;;;6.21;100.00
18755;BME280;35061;47.664;9.166;2023-12-14T02:31:22;100711.01;;;6.24;100.00
18755;BME280;35061;47.664;9.166;2023-12-14T02:33:50;100716.56;;;6.27;100.00
18755;BME280;35061;47.664;9.166;2023-12-14T02:36:18;100719.24;;;6.31;100.00
18755;BME280;35061;47.664;9.166;2023-12-14T02:38:46;100720.03;;;6.32;100.00
18755;BME280;35061;47.664;9.166;2023-12-14T02:41:14;100721.17;;;6.34;100.00
18755;BME280;35061;47.664;9.166;2023-12-14T02:43:42;100726.38;;;6.36;100.00
18755;BME280;35061;47.664;9.166;2023-12-14T02:46:11;100732.06;;;6.36;100.00
18755;BME280;35061;47.664;9.166;2023-12-14T02:48:41;100726.24;;;6.39;100.00
18755;BME280;35061;47.664;9.166;2023-12-14T02:51:14;100726.24;;;6.39;100.00
18755;BME280;35061;47.664;9.166;2023-12-14T02:53:42;100729.38;;;6.41;100.00
18755;BME280;35061;47.664;9.166;2023-12-14T02:56:10;100733.38;;;6.44;100.00
18755;BME280;35061;47.664;9.166;2023-12-14T02:58:41;100730.46;;;6.35;100.00
18755;BME280;35061;47.664;9.166;2023-12-14T03:01:09;100743.61;;;6.32;100.00
18755;BME280;35061;47.664;9.166;2023-12-14T03:03:40;100742.46;;;6.30;100.00
18755;BME280;35061;47.664;9.166;2023-12-14T03:06:08;100743.25;;;6.30;100.00
18755;BME280;35061;47.664;9.166;2023-12-14T03:08:36;100754.63;;;6.30;100.00
18755;BME280;35061;47.664;9.166;2023-12-14T03:11:04;100749.55;;;6.25;100.00
18755;BME280;35061;47.664;9.166;2023-12-14T03:13:32;100762.31;;;6.20;100.00
18755;BME280;35061;47.664;9.166;2023-12-14T03:16:00;100755.84;;;6.20;100.00
18755;BME280;35061;47.664;9.166;2023-12-14T03:18:28;100761.85;;;6.22;100.00
18755;BME280;35061;47.664;9.166;2023-12-14T03:20:56;100757.41;;;6.21;100.00
18755;BME280;35061;47.664;9.166;2023-12-14T03:23:24;100760.61;;;6.23;100.00
18755;BME280;35061;47.664;9.166;2023-12-14T03:25:52;100773.69;;;6.20;100.00
18755;BME280;35061;47.664;9.166;2023-12-14T03:28:20;100771.80;;;6.17;100.00
18755;BME280;35061;47.664;9.166;2023-12-14T03:30:48;100780.66;;;6.19;100.00
18755;BME280;35061;47.664;9.166;2023-12-14T03:33:16;100782.68;;;6.19;100.00
18755;BME280;35061;47.664;9.166;2023-12-14T03:35:45;100787.26;;;6.16;100.00
18755;BME280;35061;47.664;9.166;2023-12-14T03:38:14;100783.86;;;6.08;100.00
18755;BME280;35061;47.664;9.166;2023-12-14T03:40:42;100781.02;;;6.08;100.00
18755;BME280;35061;47.664;9.166;2023-12-14T03:43:10;100785.82;;;6.11;100.00
18755;BME280;35061;47.664;9.166;2023-12-14T03:45:38;100795.57;;;6.10;100.00
18755;BME280;35061;47.664;9.166;2023-12-14T03:48:06;100794.13;;;6.06;100.00
18755;BME280;35061;47.664;9.166;2023-12-14T03:50:34;100796.52;;;6.07;100.00
18755;BME280;35061;47.664;9.166;2023-12-14T03:53:02;100802.99;;;6.08;100.00
18755;BME280;35061;47.664;9.166;2023-12-14T03:55:30;100801.42;;;6.07;100.00
18755;BME280;35061;47.664;9.166;2023-12-14T03:57:58;100815.16;;;6.08;100.00
18755;BME280;35061;47.664;9.166;2023-12-14T04:00:26;100804.27;;;6.07;100.00
18755;BME280;35061;47.664;9.166;2023-12-14T04:02:54;100815.48;;;6.10;100.00
18755;BME280;35061;47.664;9.166;2023-12-14T04:05:22;100813.00;;;6.12;100.00
18755;BME280;35061;47.664;9.166;2023-12-14T04:07:50;100821.53;;;6.12;100.00
18755;BME280;35061;47.664;9.166;2023-12-14T04:10:18;100823.88;;;6.14;100.00
18755;BME280;35061;47.664;9.166;2023-12-14T04:12:46;100819.77;;;6.15;100.00
18755;BME280;35061;47.664;9.166;2023-12-14T04:15:14;100831.96;;;6.16;100.00
18755;BME280;35061;47.664;9.166;2023-12-14T04:17:42;100835.62;;;6.16;100.00
18755;BME280;35061;47.664;9.166;2023-12-14T04:20:11;100850.60;;;6.17;100.00
18755;BME280;35061;47.664;9.166;2023-12-14T04:22:40;100849.69;;;6.20;100.00
18755;BME280;35061;47.664;9.166;2023-12-14T04:25:08;100852.20;;;6.18;100.00
18755;BME280;35061;47.664;9.166;2023-12-14T04:27:36;100865.97;;;6.19;100.00
18755;BME280;35061;47.664;9.166;2023-12-14T04:30:05;100864.70;;;6.20;100.00
18755;BME280;35061;47.664;9.166;2023-12-14T04:32:33;100870.84;;;6.19;100.00
18755;BME280;35061;47.664;9.166;2023-12-14T04:35:02;100872.22;;;6.14;100.00
18755;BME280;35061;47.664;9.166;2023-12-14T04:37:30;100878.27;;;6.16;100.00
18755;BME280;35061;47.664;9.166;2023-12-14T04:39:58;100891.67;;;6.16;100.00
18755;BME280;35061;47.664;9.166;2023-12-14T04:42:26;100891.34;;;6.13;100.00
18755;BME280;35061;47.664;9.166;2023-12-14T04:44:54;100887.81;;;6.09;100.00
18755;BME280;35061;47.664;9.166;2023-12-14T04:47:22;100891.48;;;6.10;100.00
18755;BME280;35061;47.664;9.166;2023-12-14T04:49:51;100900.80;;;6.10;100.00
18755;BME280;35061;47.664;9.166;2023-12-14T04:52:19;100902.86;;;6.10;100.00
18755;BME280;35061;47.664;9.166;2023-12-14T04:54:46;100903.77;;;6.07;100.00
18755;BME280;35061;47.664;9.166;2023-12-14T04:57:15;100912.63;;;6.09;100.00
18755;BME280;35061;47.664;9.166;2023-12-14T04:59:42;100925.59;;;6.10;100.00
18755;BME280;35061;47.664;9.166;2023-12-14T05:02:10;100927.31;;;6.07;100.00
18755;BME280;35061;47.664;9.166;2023-12-14T05:04:41;100932.88;;;6.11;100.00
18755;BME280;35061;47.664;9.166;2023-12-14T05:07:09;100930.03;;;6.11;100.00
18755;BME280;35061;47.664;9.166;2023-12-14T05:09:39;100937.75;;;6.10;100.00
18755;BME280;35061;47.664;9.166;2023-12-14T05:12:10;100944.84;;;6.06;100.00
18755;BME280;35061;47.664;9.166;2023-12-14T05:14:38;100944.48;;;6.04;100.00
18755;BME280;35061;47.664;9.166;2023-12-14T05:17:06;100954.59;;;6.05;100.00
18755;BME280;35061;47.664;9.166;2023-12-14T05:19:34;100963.48;;;6.07;100.00
18755;BME280;35061;47.664;9.166;2023-12-14T05:22:03;100958.91;;;6.09;100.00
18755;BME280;35061;47.664;9.166;2023-12-14T05:24:31;100966.98;;;6.11;100.00
18755;BME280;35061;47.664;9.166;2023-12-14T05:26:59;100974.14;;;6.16;100.00
18755;BME280;35061;47.664;9.166;2023-12-14T05:29:27;100971.30;;;6.16;100.00
18755;BME280;35061;47.664;9.166;2023-12-14T05:31:55;100974.80;;;6.20;100.00
18755;BME280;35061;47.664;9.166;2023-12-14T05:34:23;100985.30;;;6.23;100.00
18755;BME280;35061;47.664;9.166;2023-12-14T05:36:51;100981.96;;;6.24;100.00
18755;BME280;35061;47.664;9.166;2023-12-14T05:39:19;100984.80;;;6.24;100.00
18755;BME280;35061;47.664;9.166;2023-12-14T05:41:47;100984.25;;;6.30;100.00
18755;BME280;35061;47.664;9.166;2023-12-14T05:44:15;100990.07;;;6.26;100.00
18755;BME280;35061;47.664;9.166;2023-12-14T05:46:43;101000.99;;;6.27;100.00
18755;BME280;35061;47.664;9.166;2023-12-14T05:49:14;101007.46;;;6.28;100.00
18755;BME280;35061;47.664;9.166;2023-12-14T05:51:42;101008.25;;;6.28;100.00
18755;BME280;35061;47.664;9.166;2023-12-14T05:54:10;101013.94;;;6.28;100.00
18755;BME280;35061;47.664;9.166;2023-12-14T05:56:40;101010.73;;;6.26;100.00
18755;BME280;35061;47.664;9.166;2023-12-14T05:59:08;101018.06;;;6.27;100.00
18755;BME280;35061;47.664;9.166;2023-12-14T06:01:36;101024.50;;;6.28;100.00
18755;BME280;35061;47.664;9.166;2023-12-14T06:04:04;101022.12;;;6.26;100.00
18755;BME280;35061;47.664;9.166;2023-12-14T06:06:32;101029.54;;;6.24;100.00
18755;BME280;35061;47.664;9.166;2023-12-14T06:09:00;101039.77;;;6.21;100.00
18755;BME280;35061;47.664;9.166;2023-12-14T06:11:29;101036.14;;;6.21;100.00
18755;BME280;35061;47.664;9.166;2023-12-14T06:13:56;101039.12;;;6.17;100.00
18755;BME280;35061;47.664;9.166;2023-12-14T06:16:25;101041.15;;;6.17;100.00
18755;BME280;35061;47.664;9.166;2023-12-14T06:18:55;101048.54;;;6.14;100.00
18755;BME280;35061;47.664;9.166;2023-12-14T06:21:23;101052.30;;;6.11;100.00
18755;BME280;35061;47.664;9.166;2023-12-14T06:23:56;101066.98;;;6.09;100.00
18755;BME280;35061;47.664;9.166;2023-12-14T06:26:25;101061.75;;;6.08;100.00
18755;BME280;35061;47.664;9.166;2023-12-14T06:28:56;101070.74;;;6.06;100.00
18755;BME280;35061;47.664;9.166;2023-12-14T06:31:24;101078.81;;;6.08;100.00
18755;BME280;35061;47.664;9.166;2023-12-14T06:33:52;101091.44;;;6.07;100.00
18755;BME280;35061;47.664;9.166;2023-12-14T06:36:24;101089.87;;;6.06;100.00
18755;BME280;35061;47.664;9.166;2023-12-14T06:38:58;101097.91;;;6.07;100.00
18755;BME280;35061;47.664;9.166;2023-12-14T06:41:27;101105.30;;;6.05;100.00
18755;BME280;35061;47.664;9.166;2023-12-14T06:43:55;101112.59;;;6.06;100.00
18755;BME280;35061;47.664;9.166;2023-12-14T06:46:23;101109.39;;;6.04;100.00
18755;BME280;35061;47.664;9.166;2023-12-14T06:48:52;101114.66;;;6.05;100.00
18755;BME280;35061;47.664;9.166;2023-12-14T06:51:22;101114.98;;;6.07;100.00
18755;BME280;35061;47.664;9.166;2023-12-14T06:53:50;101121.13;;;6.06;100.00
18755;BME280;35061;47.664;9.166;2023-12-14T06:56:18;101127.93;;;6.08;100.00
18755;BME280;35061;47.664;9.166;2023-12-14T06:58:46;101129.20;;;6.07;100.00
18755;BME280;35061;47.664;9.166;2023-12-14T07:01:17;101131.59;;;6.09;100.00
18755;BME280;35061;47.664;9.166;2023-12-14T07:03:48;101141.70;;;6.10;100.00
18755;BME280;35061;47.664;9.166;2023-12-14T07:06:19;101149.45;;;6.09;100.00
18755;BME280;35061;47.664;9.166;2023-12-14T07:08:47;101158.34;;;6.11;100.00
18755;BME280;35061;47.664;9.166;2023-12-14T07:11:15;101157.52;;;6.11;100.00
18755;BME280;35061;47.664;9.166;2023-12-14T07:13:43;101152.29;;;6.09;100.00
18755;BME280;35061;47.664;9.166;2023-12-14T07:16:12;101166.06;;;6.11;100.00
18755;BME280;35061;47.664;9.166;2023-12-14T07:18:41;101162.76;;;6.12;100.00
18755;BME280;35061;47.664;9.166;2023-12-14T07:21:09;101161.52;;;6.13;100.00
18755;BME280;35061;47.664;9.166;2023-12-14T07:23:38;101172.41;;;6.15;100.00
18755;BME280;35061;47.664;9.166;2023-12-14T07:26:06;101175.25;;;6.15;100.00
18755;BME280;35061;47.664;9.166;2023-12-14T07:28:34;101180.28;;;6.24;100.00
18755;BME280;35061;47.664;9.166;2023-12-14T07:31:03;101190.09;;;6.23;100.00
18755;BME280;35061;47.664;9.166;2023-12-14T07:33:31;101189.93;;;6.26;100.00
18755;BME280;35061;47.664;9.166;2023-12-14T07:35:59;101192.35;;;6.28;100.00
18755;BME280;35061;47.664;9.166;2023-12-14T07:38:27;101198.95;;;6.51;100.00
18755;BME280;35061;47.664;9.166;2023-12-14T07:40:55;101207.49;;;6.51;100.00
18755;BME280;35061;47.664;9.166;2023-12-14T07:43:24;101217.04;;;6.57;100.00
18755;BME280;35061;47.664;9.166;2023-12-14T07:45:52;101215.47;;;6.56;100.00
18755;BME280;35061;47.664;9.166;2023-12-14T07:48:20;101223.91;;;6.60;100.00
18755;BME280;35061;47.664;9.166;2023-12-14T07:50:48;101225.61;;;6.57;100.00
18755;BME280;35061;47.664;9.166;2023-12-14T07:53:16;101232.87;;;6.58;100.00
18755;BME280;35061;47.664;9.166;2023-12-14T07:55:44;101234.47;;;6.59;100.00
18755;BME280;35061;47.664;9.166;2023-12-14T07:58:12;101240.48;;;6.61;100.00
18755;BME280;35061;47.664;9.166;2023-12-14T08:00:41;101248.14;;;6.64;100.00
18755;BME280;35061;47.664;9.166;2023-12-14T08:03:09;101247.78;;;6.62;100.00
18755;BME280;35061;47.664;9.166;2023-12-14T08:05:37;101252.68;;;6.62;100.00
18755;BME280;35061;47.664;9.166;2023-12-14T08:08:05;101255.62;;;6.58;100.00
18755;BME280;35061;47.664;9.166;2023-12-14T08:10:33;101262.27;;;6.55;100.00
18755;BME280;35061;47.664;9.166;2023-12-14T08:13:02;101267.46;;;6.56;100.00
18755;BME280;35061;47.664;9.166;2023-12-14T08:15:30;101265.89;;;6.55;100.00
18755;BME280;35061;47.664;9.166;2023-12-14T08:17:58;101278.19;;;6.52;100.00
18755;BME280;35061;47.664;9.166;2023-12-14T08:20:26;101281.03;;;6.52;100.00
18755;BME280;35061;47.664;9.166;2023-12-14T08:22:54;101295.95;;;6.56;100.00
18755;BME280;35061;47.664;9.166;2023-12-14T08:25:22;101281.82;;;6.53;100.00
18755;BME280;35061;47.664;9.166;2023-12-14T08:27:50;101293.55;;;6.55;100.00
18755;BME280;35061;47.664;9.166;2023-12-14T08:30:19;101286.73;;;6.52;100.00
18755;BME280;35061;47.664;9.166;2023-12-14T08:32:47;101302.55;;;6.53;100.00
18755;BME280;35061;47.664;9.166;2023-12-14T08:35:15;101299.67;;;6.53;100.00
18755;BME280;35061;47.664;9.166;2023-12-14T08:37:43;101309.38;;;6.56;100.00
18755;BME280;35061;47.664;9.166;2023-12-14T08:40:12;101317.10;;;6.55;100.00
18755;BME280;35061;47.664;9.166;2023-12-14T08:42:40;101321.19;;;6.54;100.00
18755;BME280;35061;47.664;9.166;2023-12-14T08:45:08;101329.73;;;6.54;100.00
18755;BME280;35061;47.664;9.166;2023-12-14T08:47:39;101329.73;;;6.54;100.00
18755;BME280;35061;47.664;9.166;2023-12-14T08:50:07;101337.12;;;6.52;100.00
18755;BME280;35061;47.664;9.166;2023-12-14T08:52:36;101336.23;;;6.55;100.00
18755;BME280;35061;47.664;9.166;2023-12-14T08:55:05;101339.20;;;6.51;100.00
18755;BME280;35061;47.664;9.166;2023-12-14T08:57:34;101343.20;;;6.54;100.00
18755;BME280;35061;47.664;9.166;2023-12-14T09:00:02;101348.40;;;6.55;100.00
18755;BME280;35061;47.664;9.166;2023-12-14T09:02:35;101348.40;;;6.55;100.00
18755;BME280;35061;47.664;9.166;2023-12-14T09:05:04;101354.80;;;6.60;100.00
18755;BME280;35061;47.664;9.166;2023-12-14T09:07:34;101364.95;;;6.61;100.00
18755;BME280;35061;47.664;9.166;2023-12-14T09:10:02;101368.02;;;6.66;100.00
18755;BME280;35061;47.664;9.166;2023-12-14T09:12:30;101374.75;;;6.73;100.00
18755;BME280;35061;47.664;9.166;2023-12-14T09:14:59;101376.45;;;6.70;100.00
18755;BME280;35061;47.664;9.166;2023-12-14T09:17:27;101372.70;;;6.73;100.00
18755;BME280;35061;47.664;9.166;2023-12-14T09:20:04;101382.83;;;6.74;100.00
18755;BME280;35061;47.664;9.166;2023-12-14T09:22:32;101384.34;;;6.79;100.00
18755;BME280;35061;47.664;9.166;2023-12-14T09:25:01;101384.23;;;6.82;100.00
18755;BME280;35061;47.664;9.166;2023-12-14T09:27:29;101389.80;;;6.86;100.00
18755;BME280;35061;47.664;9.166;2023-12-14T09:29:58;101401.53;;;6.88;100.00
18755;BME280;35061;47.664;9.166;2023-12-14T09:32:26;101408.83;;;6.89;100.00
18755;BME280;35061;47.664;9.166;2023-12-14T09:34:54;101412.13;;;6.88;100.00
18755;BME280;35061;47.664;9.166;2023-12-14T09:37:24;101420.56;;;6.91;100.00
18755;BME280;35061;47.664;9.166;2023-12-14T09:39:52;101424.23;;;6.92;100.00
18755;BME280;35061;47.664;9.166;2023-12-14T09:42:21;101428.64;;;6.93;100.00
18755;BME280;35061;47.664;9.166;2023-12-14T09:44:50;101439.14;;;6.96;100.00
18755;BME280;35061;47.664;9.166;2023-12-14T09:47:20;101436.72;;;6.94;100.00
18755;BME280;35061;47.664;9.166;2023-12-14T09:49:49;101440.28;;;6.98;100.00
18755;BME280;35061;47.664;9.166;2023-12-14T09:52:18;101443.32;;;6.91;100.00
18755;BME280;35061;47.664;9.166;2023-12-14T09:54:46;101447.45;;;6.90;100.00
18755;BME280;35061;47.664;9.166;2023-12-14T09:57:14;101449.93;;;6.88;100.00
18755;BME280;35061;47.664;9.166;2023-12-14T09:59:50;101453.23;;;6.87;100.00
18755;BME280;35061;47.664;9.166;2023-12-14T10:02:19;101449.60;;;6.86;100.00
18755;BME280;35061;47.664;9.166;2023-12-14T10:04:47;101463.04;;;6.86;100.00
18755;BME280;35061;47.664;9.166;2023-12-14T10:07:16;101460.63;;;6.84;100.00
18755;BME280;35061;47.664;9.166;2023-12-14T10:09:44;101456.27;;;6.79;100.00
18755;BME280;35061;47.664;9.166;2023-12-14T10:12:12;101469.65;;;6.82;100.00
18755;BME280;35061;47.664;9.166;2023-12-14T10:14:40;101468.38;;;6.83;100.00
18755;BME280;35061;47.664;9.166;2023-12-14T10:17:21;101473.18;;;6.87;100.00
18755;BME280;35061;47.664;9.166;2023-12-14T10:19:52;101473.18;;;6.87;100.00
18755;BME280;35061;47.664;9.166;2023-12-14T10:22:20;101473.87;;;6.91;100.00
18755;BME280;35061;47.664;9.166;2023-12-14T10:24:48;101471.38;;;6.93;100.00
18755;BME280;35061;47.664;9.166;2023-12-14T10:27:16;101474.00;;;7.00;100.00
18755;BME280;35061;47.664;9.166;2023-12-14T10:29:45;101477.89;;;7.06;100.00
18755;BME280;35061;47.664;9.166;2023-12-14T10:32:14;101470.14;;;7.07;100.00
18755;BME280;35061;47.664;9.166;2023-12-14T10:34:42;101476.29;;;7.05;100.00
18755;BME280;35061;47.664;9.166;2023-12-14T10:37:11;101483.91;;;7.08;100.00
18755;BME280;35061;47.664;9.166;2023-12-14T10:39:42;101483.38;;;7.14;100.00
18755;BME280;35061;47.664;9.166;2023-12-14T10:42:10;101484.04;;;7.18;100.00
18755;BME280;35061;47.664;9.166;2023-12-14T10:44:48;101483.02;;;7.24;100.00
18755;BME280;35061;47.664;9.166;2023-12-14T10:47:22;101487.70;;;7.31;100.00
18755;BME280;35061;47.664;9.166;2023-12-14T10:49:51;101486.00;;;7.34;100.00
18755;BME280;35061;47.664;9.166;2023-12-14T10:52:20;101497.64;;;7.39;100.00
18755;BME280;35061;47.664;9.166;2023-12-14T10:54:58;101492.38;;;7.38;100.00
18755;BME280;35061;47.664;9.166;2023-12-14T10:57:28;101499.24;;;7.40;100.00
18755;BME280;35061;47.664;9.166;2023-12-14T11:00:02;101497.54;;;7.43;100.00
18755;BME280;35061;47.664;9.166;2023-12-14T11:02:30;101508.13;;;7.43;100.00
18755;BME280;35061;47.664;9.166;2023-12-14T11:05:05;101514.41;;;7.37;100.00
18755;BME280;35061;47.664;9.166;2023-12-14T11:07:53;101516.80;;;7.39;100.00
18755;BME280;35061;47.664;9.166;2023-12-14T11:10:26;101524.20;;;7.36;100.00
18755;BME280;35061;47.664;9.166;2023-12-14T11:13:03;101524.55;;;7.38;100.00
18755;BME280;35061;47.664;9.166;2023-12-14T11:15:34;101521.34;;;7.36;100.00
18755;BME280;35061;47.664;9.166;2023-12-14T11:25:53;101535.15;;;7.51;100.00
18755;BME280;35061;47.664;9.166;2023-12-14T11:28:26;101541.20;;;7.53;100.00
18755;BME280;35061;47.664;9.166;2023-12-14T11:30:56;101533.35;;;7.57;100.00
18755;BME280;35061;47.664;9.166;2023-12-14T11:33:24;101537.34;;;7.60;100.00
18755;BME280;35061;47.664;9.166;2023-12-14T11:35:52;101545.31;;;7.65;100.00
18755;BME280;35061;47.664;9.166;2023-12-14T11:38:21;101530.73;;;7.63;100.00
18755;BME280;35061;47.664;9.166;2023-12-14T11:40:51;101543.62;;;7.67;100.00
18755;BME280;35061;47.664;9.166;2023-12-14T11:43:19;101545.87;;;7.73;100.00
18755;BME280;35061;47.664;9.166;2023-12-14T11:45:54;101551.04;;;7.78;100.00
18755;BME280;35061;47.664;9.166;2023-12-14T11:48:23;101549.77;;;7.79;100.00
18755;BME280;35061;47.664;9.166;2023-12-14T11:50:52;101561.30;;;7.75;100.00
18755;BME280;35061;47.664;9.166;2023-12-14T11:53:21;101569.41;;;7.77;100.00
18755;BME280;35061;47.664;9.166;2023-12-14T11:55:49;101582.49;;;7.74;100.00
18755;BME280;35061;47.664;9.166;2023-12-14T11:58:17;101583.54;;;7.67;100.00
18755;BME280;35061;47.664;9.166;2023-12-14T12:00:45;101579.09;;;7.66;100.00
18755;BME280;35061;47.664;9.166;2023-12-14T12:03:17;101581.22;;;7.62;100.00
18755;BME280;35061;47.664;9.166;2023-12-14T12:05:49;101580.89;;;7.60;100.00
18755;BME280;35061;47.664;9.166;2023-12-14T12:08:19;101587.95;;;7.56;100.00
18755;BME280;35061;47.664;9.166;2023-12-14T12:10:48;101591.62;;;7.56;100.00
18755;BME280;35061;47.664;9.166;2023-12-14T12:13:19;101594.37;;;7.60;100.00
18755;BME280;35061;47.664;9.166;2023-12-14T12:15:48;101592.30;;;7.60;100.00
18755;BME280;35061;47.664;9.166;2023-12-14T12:18:16;101586.35;;;7.54;100.00
18755;BME280;35061;47.664;9.166;2023-12-14T12:20:45;101587.17;;;7.55;100.00
18755;BME280;35061;47.664;9.166;2023-12-14T12:23:13;101600.61;;;7.54;100.00
18755;BME280;35061;47.664;9.166;2023-12-14T12:25:41;101588.05;;;7.52;100.00
18755;BME280;35061;47.664;9.166;2023-12-14T12:28:09;101603.55;;;7.51;100.00
18755;BME280;35061;47.664;9.166;2023-12-14T12:30:37;101595.02;;;7.51;100.00
18755;BME280;35061;47.664;9.166;2023-12-14T12:33:07;101598.42;;;7.46;100.00
18755;BME280;35061;47.664;9.166;2023-12-14T12:35:35;101595.25;;;7.44;100.00
18755;BME280;35061;47.664;9.166;2023-12-14T12:38:03;101589.98;;;7.42;100.00
18755;BME280;35061;47.664;9.166;2023-12-14T12:40:31;101595.34;;;7.40;100.00
18755;BME280;35061;47.664;9.166;2023-12-14T12:43:01;101587.70;;;7.37;100.00
18755;BME280;35061;47.664;9.166;2023-12-14T12:45:29;101590.28;;;7.31;100.00
18755;BME280;35061;47.664;9.166;2023-12-14T12:47:57;101594.50;;;7.26;100.00
18755;BME280;35061;47.664;9.166;2023-12-14T12:50:26;101600.32;;;7.23;100.00
18755;BME280;35061;47.664;9.166;2023-12-14T12:52:54;101606.89;;;7.20;100.00
18755;BME280;35061;47.664;9.166;2023-12-14T12:55:22;101612.58;;;7.20;100.00
18755;BME280;35061;47.664;9.166;2023-12-14T12:57:50;101611.11;;;7.15;100.00
18755;BME280;35061;47.664;9.166;2023-12-14T13:00:18;101613.95;;;7.15;100.00
18755;BME280;35061;47.664;9.166;2023-12-14T13:02:46;101617.26;;;7.14;100.00
18755;BME280;35061;47.664;9.166;2023-12-14T13:05:14;101613.59;;;7.13;100.00